createdAt,value
2023-05-14T00:00:31.810Z,5.88
2023-05-14T00:02:59.496Z,5.45
2023-05-14T00:05:27.214Z,5.28
2023-05-14T00:07:54.033Z,5.13
2023-05-14T00:10:22.259Z,5.13
2023-05-14T00:12:49.272Z,4.95
2023-05-14T00:15:16.133Z,5.30
2023-05-14T00:17:43.018Z,5.65
2023-05-14T00:20:12.558Z,5.68
2023-05-14T00:22:40.237Z,5.47
2023-05-14T00:25:08.330Z,5.57
2023-05-14T00:27:37.879Z,5.13
2023-05-14T00:30:07.032Z,5.35
2023-05-14T00:32:34.230Z,5.20
2023-05-14T00:35:03.263Z,5.50
2023-05-14T00:37:30.361Z,5.70
2023-05-14T00:39:57.254Z,5.97
2023-05-14T00:42:24.121Z,5.18
2023-05-14T00:44:50.933Z,5.57
2023-05-14T00:47:18.944Z,5.55
2023-05-14T00:49:47.243Z,5.32
2023-05-14T00:52:15.387Z,5.78
2023-05-14T00:54:43.158Z,5.70
2023-05-14T00:57:10.232Z,5.28
2023-05-14T00:59:37.093Z,5.50
2023-05-14T01:02:04.018Z,5.03
2023-05-14T01:04:30.880Z,4.97
2023-05-14T01:07:18.775Z,4.60
2023-05-14T01:10:02.633Z,4.55
2023-05-14T01:13:06.530Z,5.10
2023-05-14T01:15:36.335Z,5.72
2023-05-14T01:18:09.834Z,5.15
2023-05-14T01:20:37.019Z,5.10
2023-05-14T01:23:04.170Z,5.60
2023-05-14T01:25:31.754Z,4.95
2023-05-14T01:28:17.583Z,4.97
2023-05-14T01:31:09.299Z,5.32
2023-05-14T01:33:37.137Z,5.40
2023-05-14T01:36:04.912Z,5.53
2023-05-14T01:38:34.250Z,5.22
2023-05-14T01:41:02.259Z,5.47
2023-05-14T01:43:30.135Z,4.68
2023-05-14T01:45:57.176Z,5.10
2023-05-14T01:48:24.453Z,4.57
2023-05-14T01:50:51.971Z,4.38
2023-05-14T01:53:19.850Z,4.80
2023-05-14T01:55:46.957Z,4.78
2023-05-14T01:58:13.768Z,5.07
2023-05-14T02:00:40.969Z,4.72
2023-05-14T02:03:07.911Z,4.47
2023-05-14T02:05:34.751Z,4.70
2023-05-14T02:08:02.278Z,4.85
2023-05-14T02:10:29.108Z,4.78
2023-05-14T02:12:56.497Z,5.35
2023-05-14T02:15:23.390Z,5.40
2023-05-14T02:17:50.658Z,4.93
2023-05-14T02:20:20.451Z,4.97
2023-05-14T02:22:48.456Z,4.80
2023-05-14T02:25:15.909Z,4.40
2023-05-14T02:27:43.226Z,5.43
2023-05-14T02:30:11.491Z,4.97
2023-05-14T02:32:38.755Z,4.80
2023-05-14T02:35:06.184Z,4.30
2023-05-14T02:37:35.360Z,4.75
2023-05-14T02:40:02.702Z,4.40
2023-05-14T02:42:30.115Z,4.53
2023-05-14T02:44:56.932Z,4.32
2023-05-14T02:47:23.763Z,4.50
2023-05-14T02:49:51.340Z,5.22
2023-05-14T02:52:19.205Z,5.18
2023-05-14T02:54:46.153Z,5.25
2023-05-14T02:57:13.696Z,4.90
2023-05-14T02:59:40.525Z,4.85
2023-05-14T03:02:07.799Z,5.78
2023-05-14T03:04:34.950Z,5.55
2023-05-14T03:07:01.777Z,6.22
2023-05-14T03:09:28.546Z,5.30
2023-05-14T03:11:55.495Z,5.78
2023-05-14T03:14:23.801Z,5.30
2023-05-14T03:16:50.775Z,5.43
2023-05-14T03:19:17.646Z,5.28
2023-05-14T03:21:44.680Z,5.20
2023-05-14T03:24:11.592Z,5.40
2023-05-14T03:26:39.392Z,4.75
2023-05-14T03:29:06.164Z,5.43
2023-05-14T03:31:33.016Z,5.30
2023-05-14T03:33:59.868Z,5.75
2023-05-14T03:36:27.770Z,5.43
2023-05-14T03:38:54.703Z,5.53
2023-05-14T03:41:23.009Z,5.68
2023-05-14T03:43:49.869Z,5.70
2023-05-14T03:46:16.729Z,5.13
2023-05-14T03:48:43.669Z,6.55
2023-05-14T03:51:11.086Z,5.68
2023-05-14T03:53:39.211Z,5.72
2023-05-14T03:56:06.213Z,5.80
2023-05-14T03:58:33.205Z,5.35
2023-05-14T04:01:00.511Z,5.90
2023-05-14T04:03:28.985Z,6.07
2023-05-14T04:05:55.934Z,5.68
2023-05-14T04:08:22.744Z,5.75
2023-05-14T04:10:50.128Z,5.60
2023-05-14T04:13:18.035Z,5.95
2023-05-14T04:15:45.414Z,6.00
2023-05-14T04:18:12.392Z,5.57
2023-05-14T04:20:39.329Z,5.80
2023-05-14T04:23:06.180Z,5.80
2023-05-14T04:25:33.068Z,5.57
2023-05-14T04:28:00.250Z,5.80
2023-05-14T04:30:27.075Z,5.80
2023-05-14T04:32:54.379Z,6.47
2023-05-14T04:35:24.140Z,6.38
2023-05-14T04:37:52.497Z,6.60
2023-05-14T04:40:19.504Z,5.43
2023-05-14T04:42:47.753Z,6.45
2023-05-14T04:45:14.900Z,5.35
2023-05-14T04:47:41.859Z,6.63
2023-05-14T04:50:10.040Z,6.07
2023-05-14T04:52:38.362Z,5.72
2023-05-14T04:55:05.829Z,6.13
2023-05-14T04:57:32.671Z,6.20
2023-05-14T05:00:01.055Z,5.68
2023-05-14T05:02:28.050Z,6.28
2023-05-14T05:04:54.889Z,6.38
2023-05-14T05:07:21.692Z,6.25
2023-05-14T05:09:50.113Z,6.65
2023-05-14T05:12:16.936Z,6.80
2023-05-14T05:14:43.761Z,7.07
2023-05-14T05:17:10.619Z,8.35
2023-05-14T05:19:43.686Z,8.98
2023-05-14T05:22:12.573Z,10.45
2023-05-14T05:24:39.596Z,7.38
2023-05-14T05:27:06.464Z,6.60
2023-05-14T05:29:33.683Z,6.97
2023-05-14T05:32:00.814Z,7.68
2023-05-14T05:34:28.049Z,8.40
2023-05-14T05:36:54.912Z,8.43
2023-05-14T05:39:22.792Z,7.57
2023-05-14T05:41:49.585Z,8.07
2023-05-14T05:44:16.445Z,7.40
2023-05-14T05:46:43.443Z,7.93
2023-05-14T05:49:11.476Z,7.55
2023-05-14T05:51:38.287Z,7.78
2023-05-14T05:54:05.161Z,8.70
2023-05-14T05:56:32.148Z,8.70
2023-05-14T05:59:00.206Z,8.70
2023-05-14T06:01:27.066Z,8.75
2023-05-14T06:03:53.906Z,10.40
2023-05-14T06:06:22.044Z,10.23
2023-05-14T06:08:49.255Z,10.82
2023-05-14T06:11:17.140Z,10.95
2023-05-14T06:13:44.030Z,10.75
2023-05-14T06:16:12.215Z,11.70
2023-05-14T06:18:39.561Z,11.98
2023-05-14T06:21:07.041Z,11.43
2023-05-14T06:23:33.976Z,13.40
2023-05-14T06:26:01.934Z,13.32
2023-05-14T06:28:30.548Z,14.13
2023-05-14T06:30:57.447Z,15.27
2023-05-14T06:33:30.914Z,15.55
2023-05-14T06:36:06.036Z,17.13
2023-05-14T06:38:33.016Z,18.38
2023-05-14T06:40:59.844Z,17.23
2023-05-14T06:43:26.787Z,18.13
2023-05-14T06:45:53.844Z,16.67
2023-05-14T06:48:21.075Z,17.13
2023-05-14T06:50:49.208Z,18.42
2023-05-14T06:53:16.612Z,19.60
2023-05-14T06:55:43.556Z,17.88
2023-05-14T06:58:10.992Z,17.27
2023-05-14T07:00:37.806Z,17.55
2023-05-14T07:03:04.849Z,17.48
2023-05-14T07:05:34.227Z,17.08
2023-05-14T07:08:01.124Z,18.42
2023-05-14T07:10:28.525Z,17.40
2023-05-14T07:12:55.428Z,18.80
2023-05-14T07:15:22.283Z,18.75
2023-05-14T07:17:49.787Z,16.45
2023-05-14T07:20:16.664Z,18.95
2023-05-14T07:22:44.864Z,17.33
2023-05-14T07:25:11.874Z,17.88
2023-05-14T07:27:38.944Z,18.00
2023-05-14T07:30:06.818Z,17.27
2023-05-14T07:32:33.954Z,17.90
2023-05-14T07:35:01.545Z,19.10
2023-05-14T07:37:28.920Z,17.80
2023-05-14T07:39:56.716Z,17.52
2023-05-14T07:42:35.360Z,17.77
2023-05-14T07:45:04.696Z,16.65
2023-05-14T07:47:31.836Z,15.70
2023-05-14T07:49:59.138Z,18.05
2023-05-14T07:52:26.078Z,15.90
2023-05-14T07:54:53.062Z,15.57
2023-05-14T07:57:20.337Z,17.05
2023-05-14T07:59:48.398Z,16.40
2023-05-14T08:02:17.038Z,15.25
2023-05-14T08:04:45.053Z,14.90
2023-05-14T08:07:13.357Z,15.68
2023-05-14T08:09:41.368Z,15.07
2023-05-14T08:12:08.640Z,14.52
2023-05-14T08:14:35.618Z,13.43
2023-05-14T08:17:02.611Z,13.38
2023-05-14T08:19:29.464Z,13.35
2023-05-14T08:21:57.597Z,12.98
2023-05-14T08:24:24.594Z,12.30
2023-05-14T08:26:51.438Z,13.38
2023-05-14T08:29:18.245Z,11.70
2023-05-14T08:31:46.589Z,12.95
2023-05-14T08:34:13.711Z,12.73
2023-05-14T08:36:40.690Z,11.55
2023-05-14T08:39:10.334Z,11.02
2023-05-14T08:41:40.596Z,11.60
2023-05-14T08:44:22.655Z,9.95
2023-05-14T08:46:50.717Z,8.60
2023-05-14T08:49:47.119Z,7.95
2023-05-14T08:52:15.720Z,7.53
2023-05-14T08:54:42.970Z,8.38
2023-05-14T08:57:10.840Z,9.95
2023-05-14T08:59:38.140Z,6.15
2023-05-14T09:02:06.992Z,5.40
2023-05-14T09:04:34.757Z,5.95
2023-05-14T09:07:02.432Z,6.22
2023-05-14T09:09:29.773Z,8.00
2023-05-14T09:11:58.072Z,9.07
2023-05-14T09:14:26.908Z,8.68
2023-05-14T09:16:54.867Z,8.27
2023-05-14T09:19:21.994Z,8.20
2023-05-14T09:21:49.885Z,6.30
2023-05-14T09:24:26.554Z,4.90
2023-05-14T09:26:54.927Z,5.97
2023-05-14T09:29:21.973Z,5.63
2023-05-14T09:31:52.926Z,5.55
2023-05-14T09:34:27.732Z,4.55
2023-05-14T09:36:59.333Z,4.88
2023-05-14T09:39:27.856Z,5.78
2023-05-14T09:41:55.088Z,5.35
2023-05-14T09:44:22.935Z,6.65
2023-05-14T09:46:51.002Z,7.43
2023-05-14T09:49:18.254Z,7.00
2023-05-14T09:51:45.368Z,7.22
2023-05-14T09:54:13.399Z,7.07
2023-05-14T09:56:40.416Z,6.00
2023-05-14T09:59:07.246Z,7.38
2023-05-14T10:01:37.249Z,7.05
2023-05-14T10:04:07.957Z,6.60
2023-05-14T10:06:38.083Z,5.75
2023-05-14T10:09:10.391Z,6.22
2023-05-14T10:11:38.873Z,5.72
2023-05-14T10:14:09.984Z,5.10
2023-05-14T10:16:47.274Z,4.90
2023-05-14T10:19:16.650Z,5.15
2023-05-14T10:21:48.504Z,5.13
2023-05-14T10:24:15.746Z,5.93
2023-05-14T10:26:43.002Z,5.25
2023-05-14T10:29:11.070Z,5.20
2023-05-14T10:31:55.544Z,6.15
2023-05-14T10:34:44.129Z,5.65
2023-05-14T10:37:26.441Z,4.82
2023-05-14T10:40:02.331Z,5.78
2023-05-14T10:42:36.400Z,5.63
2023-05-14T10:45:08.464Z,4.20
2023-05-14T10:47:48.822Z,5.07
2023-05-14T10:50:17.648Z,5.00
2023-05-14T10:52:46.362Z,4.50
2023-05-14T10:55:15.461Z,3.95
2023-05-14T10:57:44.519Z,4.35
2023-05-14T11:00:14.652Z,4.10
2023-05-14T11:02:45.124Z,3.95
2023-05-14T11:05:16.050Z,4.22
2023-05-14T11:07:50.888Z,3.80
2023-05-14T11:10:21.516Z,3.78
2023-05-14T11:12:56.053Z,3.38
2023-05-14T11:15:24.892Z,2.95
2023-05-14T11:17:53.256Z,3.40
2023-05-14T11:20:20.827Z,3.15
2023-05-14T11:22:49.271Z,3.42
2023-05-14T11:25:16.365Z,4.18
2023-05-14T11:27:44.672Z,3.80
2023-05-14T11:30:19.443Z,3.65
2023-05-14T11:32:48.502Z,4.07
2023-05-14T11:35:16.393Z,3.92
2023-05-14T11:37:44.144Z,4.10
2023-05-14T11:40:18.878Z,4.05
2023-05-14T11:42:46.022Z,4.65
2023-05-14T11:45:18.623Z,3.40
2023-05-14T11:47:45.462Z,3.75
2023-05-14T11:50:12.313Z,4.18
2023-05-14T11:52:42.548Z,3.28
2023-05-14T11:55:14.632Z,3.67
2023-05-14T11:57:41.660Z,3.75
2023-05-14T12:00:16.975Z,3.97
2023-05-14T12:02:46.397Z,4.55
2023-05-14T12:05:13.780Z,4.00
2023-05-14T12:07:42.015Z,3.70
2023-05-14T12:10:09.329Z,3.60
2023-05-14T12:12:42.257Z,3.65
2023-05-14T12:15:14.125Z,3.53
2023-05-14T12:17:42.307Z,3.60
2023-05-14T12:20:11.257Z,3.88
2023-05-14T12:22:39.496Z,4.00
2023-05-14T12:25:13.634Z,3.80
2023-05-14T12:27:40.858Z,3.95
2023-05-14T12:32:41.291Z,3.92
2023-05-14T12:35:09.299Z,3.95
2023-05-14T12:37:38.630Z,3.88
2023-05-14T12:40:15.564Z,3.67
2023-05-14T12:42:42.640Z,4.10
2023-05-14T12:45:12.488Z,4.50
2023-05-14T12:47:39.339Z,4.50
2023-05-14T12:50:08.228Z,4.25
2023-05-14T12:55:05.818Z,4.95
2023-05-14T12:57:32.700Z,5.57
2023-05-14T12:59:59.492Z,5.00
2023-05-14T13:02:26.357Z,5.22
2023-05-14T13:04:53.384Z,5.03
2023-05-14T13:07:20.261Z,4.65
2023-05-14T13:09:47.125Z,5.22
2023-05-14T13:12:14.015Z,5.32
2023-05-14T13:14:41.094Z,5.47
2023-05-14T13:17:08.383Z,5.75
2023-05-14T13:19:37.030Z,5.15
2023-05-14T13:22:04.083Z,7.13
2023-05-14T13:24:30.850Z,7.43
2023-05-14T13:26:59.181Z,9.77
2023-05-14T13:29:26.328Z,10.13
2023-05-14T13:31:53.220Z,8.63
2023-05-14T13:34:20.095Z,8.20
2023-05-14T13:36:47.371Z,7.18
2023-05-14T13:39:14.651Z,7.28
2023-05-14T13:41:41.813Z,7.78
2023-05-14T13:44:08.676Z,7.43
2023-05-14T13:46:35.752Z,6.82
2023-05-14T13:49:03.099Z,7.50
2023-05-14T13:51:29.999Z,6.47
2023-05-14T13:53:56.882Z,7.10
2023-05-14T13:56:24.338Z,8.10
2023-05-14T13:58:53.022Z,7.40
2023-05-14T14:01:20.157Z,8.95
2023-05-14T14:09:17.765Z,10.45
2023-05-14T14:11:44.895Z,8.25
2023-05-14T14:14:11.756Z,8.48
2023-05-14T14:16:38.735Z,9.82
2023-05-14T14:19:05.789Z,9.18
2023-05-14T14:21:32.894Z,10.48
2023-05-14T14:23:59.870Z,8.68
2023-05-14T14:26:28.205Z,7.25
2023-05-14T14:28:55.467Z,8.27
2023-05-14T14:31:22.358Z,8.23
2023-05-14T14:33:49.251Z,8.73
2023-05-14T14:36:16.175Z,9.32
2023-05-14T14:38:43.026Z,8.02
2023-05-14T14:41:10.360Z,9.07
2023-05-14T14:43:38.299Z,6.72
2023-05-14T14:46:05.399Z,12.48
2023-05-14T14:48:34.712Z,8.82
2023-05-14T14:51:01.723Z,7.80
2023-05-14T14:53:28.646Z,7.25
2023-05-14T14:55:56.106Z,7.32
2023-05-14T14:58:23.542Z,8.45
2023-05-14T15:00:52.847Z,8.43
2023-05-14T15:03:20.048Z,8.75
2023-05-14T15:05:47.556Z,8.75
2023-05-14T15:08:15.462Z,8.00
2023-05-14T15:10:42.454Z,7.28
2023-05-14T15:13:09.332Z,7.88
2023-05-14T15:15:36.458Z,7.47
2023-05-14T15:18:04.604Z,7.45
2023-05-14T15:20:31.674Z,7.90
2023-05-14T15:22:58.604Z,6.88
2023-05-14T15:25:26.766Z,7.30
2023-05-14T15:27:53.866Z,6.35
2023-05-14T15:30:20.736Z,8.02
2023-05-14T15:32:47.817Z,7.90
2023-05-14T15:35:14.735Z,6.45
2023-05-14T15:37:43.789Z,6.55
2023-05-14T15:40:11.999Z,6.45
2023-05-14T15:42:40.499Z,6.25
2023-05-14T15:45:07.904Z,6.18
2023-05-14T15:47:34.967Z,6.55
2023-05-14T15:50:02.342Z,6.50
2023-05-14T15:52:29.263Z,7.05
2023-05-14T15:54:57.541Z,6.78
2023-05-14T15:57:24.486Z,6.63
2023-05-14T15:59:51.685Z,5.97
2023-05-14T16:02:18.658Z,5.65
2023-05-14T16:04:45.648Z,5.60
2023-05-14T16:07:13.437Z,4.75
2023-05-14T16:09:41.828Z,4.28
2023-05-14T16:12:08.911Z,4.30
2023-05-14T16:14:36.298Z,4.88
2023-05-14T16:17:03.283Z,4.38
2023-05-14T16:19:32.955Z,4.00
2023-05-14T16:21:59.887Z,3.90
2023-05-14T16:24:26.848Z,2.97
2023-05-14T16:26:53.724Z,3.72
2023-05-14T16:29:20.664Z,3.40
2023-05-14T16:31:47.610Z,3.10
2023-05-14T16:34:14.544Z,2.72
2023-05-14T16:36:41.577Z,2.70
2023-05-14T16:39:08.813Z,2.97
2023-05-14T16:41:36.277Z,2.60
2023-05-14T16:44:03.554Z,2.25
2023-05-14T16:46:31.371Z,2.83
2023-05-14T16:48:58.357Z,2.72
2023-05-14T16:51:25.238Z,2.53
2023-05-14T16:53:52.212Z,2.55
2023-05-14T16:56:19.378Z,2.22
2023-05-14T16:58:46.213Z,2.10
2023-05-14T17:01:13.111Z,2.10
2023-05-14T17:03:39.966Z,2.25
2023-05-14T17:06:07.461Z,2.00
2023-05-14T17:08:35.802Z,2.33
2023-05-14T17:11:05.909Z,2.20
2023-05-14T17:13:33.461Z,2.60
2023-05-14T17:16:01.006Z,2.42
2023-05-14T17:18:28.117Z,2.58
2023-05-14T17:20:54.996Z,2.45
2023-05-14T17:23:24.071Z,2.92
2023-05-14T17:25:51.203Z,2.47
2023-05-14T17:28:18.048Z,2.60
2023-05-14T17:30:44.983Z,2.33
2023-05-14T17:33:12.024Z,2.10
2023-05-14T17:35:39.085Z,2.25
2023-05-14T17:38:06.026Z,2.67
2023-05-14T17:40:33.614Z,1.98
2023-05-14T17:43:00.859Z,2.15
2023-05-14T17:45:29.481Z,2.00
2023-05-14T17:47:59.227Z,2.38
2023-05-14T17:50:26.407Z,1.95
2023-05-14T17:52:54.403Z,1.90
2023-05-14T17:55:22.649Z,1.85
2023-05-14T17:57:49.932Z,2.15
2023-05-14T18:00:17.086Z,1.88
2023-05-14T18:02:44.075Z,1.95
2023-05-14T18:05:11.071Z,2.30
2023-05-14T18:07:37.929Z,2.17
2023-05-14T18:10:05.217Z,1.98
2023-05-14T18:12:32.115Z,1.98
2023-05-14T18:14:58.971Z,2.05
2023-05-14T18:17:25.878Z,1.95
2023-05-14T18:19:52.714Z,1.80
2023-05-14T18:22:21.666Z,1.90
2023-05-14T18:24:48.773Z,2.20
2023-05-14T18:27:15.853Z,1.90
2023-05-14T18:29:43.489Z,1.90
2023-05-14T18:32:10.428Z,1.85
2023-05-14T18:34:37.262Z,2.15
2023-05-14T18:37:04.130Z,1.65
2023-05-14T18:39:31.026Z,2.05
2023-05-14T18:41:57.980Z,1.70
2023-05-14T18:44:24.809Z,2.53
2023-05-14T18:46:51.996Z,2.30
2023-05-14T18:49:18.815Z,2.30
2023-05-14T18:51:45.708Z,2.50
2023-05-14T18:54:12.522Z,2.83
2023-05-14T18:56:41.361Z,2.50
2023-05-14T18:59:09.371Z,2.15
2023-05-14T19:01:36.611Z,2.20
2023-05-14T19:04:05.448Z,2.20
2023-05-14T19:06:32.895Z,2.30
2023-05-14T19:08:59.863Z,2.20
2023-05-14T19:11:26.713Z,2.35
2023-05-14T19:13:53.582Z,2.40
2023-05-14T19:16:21.383Z,2.70
2023-05-14T19:18:48.362Z,2.50
2023-05-14T19:21:15.500Z,2.30
2023-05-14T19:23:43.354Z,2.50
2023-05-14T19:26:10.268Z,2.47
2023-05-14T19:28:40.374Z,2.53
2023-05-14T19:31:07.267Z,2.42
2023-05-14T19:33:34.162Z,2.35
2023-05-14T19:36:01.278Z,2.55
2023-05-14T19:38:28.210Z,2.38
2023-05-14T19:40:57.065Z,2.88
2023-05-14T19:43:25.527Z,2.85
2023-05-14T19:45:52.572Z,2.97
2023-05-14T19:48:19.738Z,3.25
2023-05-14T19:50:47.366Z,2.75
2023-05-14T19:53:14.684Z,3.67
2023-05-14T19:55:41.903Z,3.67
2023-05-14T19:58:09.099Z,3.40
2023-05-14T20:00:37.145Z,3.33
2023-05-14T20:03:05.968Z,2.92
2023-05-14T20:05:34.534Z,2.63
2023-05-14T20:08:01.485Z,3.15
2023-05-14T20:10:28.656Z,2.85
2023-05-14T20:12:55.598Z,2.70
2023-05-14T20:15:22.455Z,2.65
2023-05-14T20:17:49.537Z,2.70
2023-05-14T20:20:16.820Z,3.13
2023-05-14T20:22:44.176Z,2.20
2023-05-14T20:25:11.110Z,2.20
2023-05-14T20:27:38.183Z,2.50
2023-05-14T20:30:05.980Z,2.03
2023-05-14T20:32:33.079Z,2.20
2023-05-14T20:35:02.289Z,2.22
2023-05-14T20:37:30.570Z,2.70
2023-05-14T20:39:58.786Z,2.78
2023-05-14T20:42:26.281Z,2.03
2023-05-14T20:44:53.828Z,2.00
2023-05-14T20:47:24.385Z,2.50
2023-05-14T20:49:51.414Z,2.33
2023-05-14T20:52:18.972Z,2.83
2023-05-14T20:54:46.141Z,2.10
2023-05-14T20:57:15.392Z,2.40
2023-05-14T20:59:42.766Z,2.40
2023-05-14T21:02:09.830Z,2.35
2023-05-14T21:04:37.022Z,2.10
2023-05-14T21:07:05.442Z,2.42
2023-05-14T21:09:32.313Z,2.50
2023-05-14T21:11:59.305Z,2.38
2023-05-14T21:14:26.209Z,2.30
2023-05-14T21:16:53.243Z,2.25
2023-05-14T21:19:20.270Z,2.22
2023-05-14T21:21:47.531Z,2.63
2023-05-14T21:24:16.835Z,2.80
2023-05-14T21:26:43.895Z,2.70
2023-05-14T21:29:11.201Z,3.25
2023-05-14T21:31:38.181Z,3.05
2023-05-14T21:34:05.187Z,3.33
2023-05-14T21:36:32.169Z,3.38
2023-05-14T21:38:58.992Z,4.15
2023-05-14T21:41:25.932Z,3.80
2023-05-14T21:43:52.833Z,4.50
2023-05-14T21:46:19.751Z,4.30
2023-05-14T21:48:46.687Z,4.95
2023-05-14T21:51:13.732Z,4.85
2023-05-14T21:53:40.633Z,4.95
2023-05-14T21:56:08.306Z,4.85
2023-05-14T21:58:35.923Z,5.18
2023-05-14T22:01:02.920Z,5.10
2023-05-14T22:03:29.827Z,4.78
2023-05-14T22:06:00.559Z,5.28
2023-05-14T22:08:27.749Z,4.70
2023-05-14T22:10:55.575Z,5.00
2023-05-14T22:13:22.631Z,5.40
2023-05-14T22:15:51.359Z,5.15
2023-05-14T22:18:22.340Z,5.10
2023-05-14T22:20:49.209Z,5.15
2023-05-14T22:23:16.109Z,4.70
2023-05-14T22:25:42.981Z,4.68
2023-05-14T22:28:09.821Z,5.35
2023-05-14T22:30:36.751Z,5.10
2023-05-14T22:33:03.618Z,5.15
2023-05-14T22:35:30.600Z,4.80
2023-05-14T22:37:57.420Z,4.45
2023-05-14T22:40:24.226Z,5.20
2023-05-14T22:42:51.174Z,5.30
2023-05-14T22:45:17.980Z,5.18
2023-05-14T22:47:44.879Z,5.22
2023-05-14T22:50:11.844Z,5.20
2023-05-14T22:52:40.979Z,5.53
2023-05-14T22:55:08.462Z,4.82
2023-05-14T22:57:35.406Z,4.60
2023-05-14T23:00:13.347Z,4.60
2023-05-14T23:02:40.345Z,5.35
2023-05-14T23:05:08.640Z,5.03
2023-05-14T23:07:35.665Z,4.57
2023-05-14T23:10:02.542Z,4.70
2023-05-14T23:12:29.389Z,5.65
2023-05-14T23:14:56.203Z,4.82
2023-05-14T23:17:23.334Z,5.03
2023-05-14T23:19:50.476Z,4.80
2023-05-14T23:22:17.454Z,4.85
2023-05-14T23:24:44.339Z,4.65
2023-05-14T23:27:11.857Z,4.93
2023-05-14T23:29:38.710Z,4.95
2023-05-14T23:32:05.884Z,4.75
2023-05-14T23:34:33.240Z,4.45
2023-05-14T23:37:00.146Z,4.25
2023-05-14T23:39:26.988Z,4.95
2023-05-14T23:41:53.799Z,4.82
2023-05-14T23:44:20.624Z,4.38
2023-05-14T23:46:47.545Z,5.07
2023-05-14T23:49:14.397Z,4.30
2023-05-14T23:51:41.207Z,4.60
2023-05-14T23:54:08.075Z,4.55
2023-05-14T23:56:35.647Z,4.60
2023-05-14T23:59:03.748Z,4.80
